createdAt,value
2023-04-24T08:24:16.893Z,11.26
2023-04-24T08:26:43.672Z,11.18
2023-04-24T08:29:10.516Z,11.27
2023-04-24T08:31:37.176Z,11.32
2023-04-24T08:34:03.767Z,11.48
2023-04-24T08:36:43.524Z,11.62
2023-04-24T08:39:13.021Z,11.43
2023-04-24T08:41:43.749Z,11.25
2023-04-24T08:44:11.098Z,11.23
2023-04-24T08:46:38.455Z,11.11
2023-04-24T08:49:05.714Z,11.44
2023-04-24T08:51:32.498Z,11.18
2023-04-24T08:53:59.080Z,11.33
2023-04-24T08:56:25.976Z,11.44
2023-04-24T08:58:54.537Z,11.35
2023-04-24T09:01:21.513Z,11.45
2023-04-24T09:03:50.956Z,11.55
2023-04-24T09:06:20.315Z,11.54
2023-04-24T09:08:51.089Z,11.49
2023-04-24T09:11:18.319Z,11.60
2023-04-24T09:13:45.154Z,11.83
2023-04-24T09:16:12.597Z,11.46
2023-04-24T09:18:39.243Z,11.40
2023-04-24T09:21:09.254Z,11.24
2023-04-24T09:23:36.201Z,11.46
2023-04-24T09:26:05.881Z,11.49
2023-04-24T09:28:33.725Z,11.33
2023-04-24T09:31:09.728Z,11.32
2023-04-24T09:33:37.320Z,11.07
2023-04-24T09:36:04.573Z,10.79
2023-04-24T09:38:38.709Z,11.12
2023-04-24T09:41:09.669Z,10.91
2023-04-24T09:43:36.762Z,11.01
2023-04-24T09:46:09.583Z,10.83
2023-04-24T09:48:38.129Z,10.88
2023-04-24T09:51:12.202Z,11.18
2023-04-24T09:53:40.203Z,11.14
2023-04-24T09:56:11.427Z,11.17
2023-04-24T09:58:38.173Z,11.15
2023-04-24T10:01:05.730Z,11.42
2023-04-24T10:03:33.846Z,11.17
2023-04-24T10:06:02.080Z,11.35
2023-04-24T10:08:35.531Z,11.01
2023-04-24T10:11:02.867Z,11.05
2023-04-24T10:13:29.918Z,11.22
2023-04-24T10:15:57.384Z,11.44
2023-04-24T10:18:25.825Z,11.39
2023-04-24T10:20:55.777Z,11.04
2023-04-24T10:23:24.065Z,11.25
2023-04-24T10:25:51.976Z,11.26
2023-04-24T10:28:19.800Z,10.96
2023-04-24T10:30:46.530Z,10.91
2023-04-24T10:33:14.210Z,10.53
2023-04-24T10:35:50.832Z,10.45
2023-04-24T10:38:25.766Z,10.68
2023-04-24T10:40:52.376Z,10.64
2023-04-24T10:43:19.689Z,10.83
2023-04-24T10:46:06.986Z,10.38
2023-04-24T10:48:35.194Z,10.26
2023-04-24T10:51:02.397Z,10.19
2023-04-24T10:53:30.645Z,10.41
2023-04-24T10:56:04.203Z,10.41
2023-04-24T10:58:54.349Z,10.51
2023-04-24T11:01:29.302Z,10.44
2023-04-24T11:04:04.581Z,10.25
2023-04-24T11:06:32.775Z,10.15
2023-04-24T11:09:04.938Z,10.52
2023-04-24T11:11:31.805Z,10.31
2023-04-24T11:13:58.348Z,10.46
2023-04-24T11:16:58.484Z,10.67
2023-04-24T11:19:27.455Z,10.78
2023-04-24T11:22:02.904Z,9.97
2023-04-24T11:24:40.810Z,10.10
2023-04-24T11:27:23.283Z,10.20
2023-04-24T11:29:56.087Z,10.36
2023-04-24T11:32:39.254Z,10.20
2023-04-24T11:35:14.975Z,10.32
2023-04-24T11:40:29.234Z,10.15
2023-04-24T11:43:00.332Z,9.78
2023-04-24T11:45:31.532Z,9.48
2023-04-24T11:47:58.561Z,9.56
2023-04-24T11:50:28.203Z,9.40
2023-04-24T11:52:54.876Z,9.41
2023-04-24T11:55:21.428Z,9.37
2023-04-24T11:57:50.743Z,9.18
2023-04-24T12:00:19.979Z,9.36
2023-04-24T12:02:47.227Z,9.38
2023-04-24T12:05:22.196Z,9.43
2023-04-24T12:07:49.809Z,9.38
2023-04-24T12:10:24.859Z,9.38
2023-04-24T12:12:52.605Z,9.52
2023-04-24T12:15:22.688Z,9.36
2023-04-24T12:17:52.441Z,9.58
2023-04-24T12:20:26.139Z,9.48
2023-04-24T12:22:55.780Z,9.55
2023-04-24T12:25:27.360Z,9.88
2023-04-24T12:28:03.794Z,9.86
2023-04-24T12:30:32.193Z,9.66
2023-04-24T12:33:01.431Z,9.99
2023-04-24T12:35:29.991Z,9.89
2023-04-24T12:37:56.650Z,9.85
2023-04-24T12:40:26.547Z,10.06
2023-04-24T12:42:53.283Z,10.23
2023-04-24T12:45:20.530Z,10.23
2023-04-24T12:47:47.488Z,9.94
2023-04-24T12:50:15.760Z,10.11
2023-04-24T12:52:43.379Z,9.67
2023-04-24T12:55:11.033Z,9.58
2023-04-24T12:57:40.712Z,9.52
2023-04-24T13:00:08.824Z,9.60
2023-04-24T13:02:35.760Z,9.57
2023-04-24T13:05:03.318Z,9.48
2023-04-24T13:07:30.072Z,9.75
2023-04-24T13:09:57.920Z,9.70
2023-04-24T13:12:27.664Z,10.07
2023-04-24T13:14:54.988Z,9.67
2023-04-24T13:17:21.665Z,9.80
2023-04-24T13:19:51.854Z,10.08
2023-04-24T13:22:21.875Z,9.86
2023-04-24T13:24:49.809Z,10.17
2023-04-24T13:27:17.119Z,10.24
2023-04-24T13:29:43.766Z,10.14
2023-04-24T13:32:10.833Z,10.39
2023-04-24T13:34:37.811Z,10.19
2023-04-24T13:37:05.099Z,9.86
2023-04-24T13:39:31.983Z,10.05
2023-04-24T13:41:59.086Z,9.90
2023-04-24T13:44:26.601Z,9.66
2023-04-24T13:46:55.237Z,9.75
2023-04-24T13:49:22.889Z,9.88
2023-04-24T13:51:49.566Z,10.14
2023-04-24T13:54:16.128Z,10.06
2023-04-24T13:56:42.875Z,10.04
2023-04-24T13:59:09.723Z,9.67
2023-04-24T14:01:36.919Z,9.92
2023-04-24T14:04:03.787Z,9.82
2023-04-24T14:06:30.559Z,10.11
2023-04-24T14:08:57.137Z,10.31
2023-04-24T14:11:23.994Z,10.16
2023-04-24T14:13:51.085Z,10.45
2023-04-24T14:16:17.944Z,10.31
2023-04-24T14:18:44.568Z,10.45
2023-04-24T14:21:11.167Z,10.35
2023-04-24T14:23:37.705Z,10.30
2023-04-24T14:26:04.327Z,10.64
2023-04-24T14:28:30.848Z,10.56
2023-04-24T14:30:57.494Z,10.40
2023-04-24T14:33:24.143Z,10.48
2023-04-24T14:35:50.741Z,10.27
2023-04-24T14:38:17.303Z,9.95
2023-04-24T14:43:13.338Z,9.53
2023-04-24T14:45:41.761Z,9.75
2023-04-24T14:48:09.537Z,9.70
2023-04-24T14:50:36.678Z,9.92
2023-04-24T14:53:03.329Z,9.88
2023-04-24T14:55:30.016Z,10.31
2023-04-24T14:57:56.752Z,10.11
2023-04-24T15:00:24.930Z,10.26
2023-04-24T15:02:51.875Z,10.00
2023-04-24T15:05:19.057Z,9.77
2023-04-24T15:07:46.389Z,9.82
2023-04-24T15:10:13.084Z,9.51
2023-04-24T15:12:39.718Z,9.87
2023-04-24T15:15:07.324Z,9.91
2023-04-24T15:17:34.026Z,9.99
2023-04-24T15:20:01.834Z,9.85
2023-04-24T15:22:28.611Z,10.01
2023-04-24T15:24:55.213Z,10.00
2023-04-24T15:27:22.097Z,10.00
2023-04-24T15:29:48.798Z,10.16
2023-04-24T15:32:16.797Z,10.10
2023-04-24T15:34:43.737Z,9.91
2023-04-24T15:37:11.575Z,10.10
2023-04-24T15:39:38.231Z,10.04
2023-04-24T15:42:04.830Z,10.14
2023-04-24T15:44:31.415Z,10.20
2023-04-24T15:47:01.575Z,10.41
2023-04-24T15:49:28.133Z,10.12
2023-04-24T15:51:54.701Z,9.79
2023-04-24T15:54:21.579Z,10.09
2023-04-24T15:56:50.726Z,9.89
2023-04-24T15:59:18.936Z,10.14
2023-04-24T16:01:45.741Z,10.17
2023-04-24T16:04:12.709Z,10.12
2023-04-24T16:06:39.435Z,10.20
2023-04-24T16:09:06.472Z,10.17
2023-04-24T16:11:34.013Z,10.05
2023-04-24T16:14:00.633Z,10.17
2023-04-24T16:16:27.997Z,10.15
2023-04-24T16:18:54.682Z,10.47
2023-04-24T16:21:21.275Z,10.31
2023-04-24T16:23:47.891Z,10.31
2023-04-24T16:26:15.546Z,10.54
2023-04-24T16:28:43.327Z,10.19
2023-04-24T16:31:10.237Z,10.05
2023-04-24T16:33:36.871Z,10.13
2023-04-24T16:36:05.250Z,10.24
2023-04-24T16:38:33.250Z,9.63
2023-04-24T16:40:59.879Z,9.67
2023-04-24T16:43:27.197Z,9.77
2023-04-24T16:45:54.370Z,9.79
2023-04-24T16:48:20.950Z,9.79
2023-04-24T16:50:47.684Z,10.03
2023-04-24T16:53:14.312Z,10.13
2023-04-24T16:55:40.929Z,10.47
2023-04-24T16:58:07.542Z,10.57
2023-04-24T17:00:34.224Z,10.74
2023-04-24T17:03:01.361Z,10.98
2023-04-24T17:05:28.152Z,10.95
2023-04-24T17:07:54.967Z,11.10
2023-04-24T17:10:21.825Z,10.64
2023-04-24T17:12:48.364Z,10.50
2023-04-24T17:15:15.205Z,10.07
2023-04-24T17:17:44.141Z,10.20
2023-04-24T17:20:21.298Z,10.18
2023-04-24T17:22:49.029Z,9.90
2023-04-24T17:25:15.773Z,9.92
2023-04-24T17:27:42.331Z,9.75
2023-04-24T17:30:09.485Z,9.83
2023-04-24T17:32:36.129Z,9.79
2023-04-24T17:35:03.527Z,10.06
2023-04-24T17:37:30.171Z,9.93
2023-04-24T17:39:56.825Z,9.91
2023-04-24T17:42:23.520Z,9.88
2023-04-24T17:44:50.142Z,9.89
2023-04-24T17:47:16.807Z,10.21
2023-04-24T17:49:43.635Z,10.12
2023-04-24T17:52:11.706Z,9.93
2023-04-24T17:54:38.283Z,10.01
2023-04-24T17:57:04.924Z,9.80
2023-04-24T17:59:31.535Z,9.68
2023-04-24T18:01:58.408Z,9.93
2023-04-24T18:04:26.146Z,9.78
2023-04-24T18:06:52.842Z,9.94
2023-04-24T18:09:20.828Z,9.95
2023-04-24T18:11:49.173Z,10.09
2023-04-24T18:14:16.179Z,10.23
2023-04-24T18:16:42.931Z,10.09
2023-04-24T18:19:09.741Z,10.27
2023-04-24T18:21:36.441Z,10.33
2023-04-24T18:24:03.415Z,10.37
2023-04-24T18:26:30.123Z,9.92
2023-04-24T18:28:56.998Z,10.17
2023-04-24T18:31:23.982Z,10.02
2023-04-24T18:33:50.607Z,10.11
2023-04-24T18:36:17.311Z,9.90
2023-04-24T18:38:44.217Z,10.05
2023-04-24T18:41:10.856Z,9.90
2023-04-24T18:43:37.444Z,10.05
2023-04-24T18:46:04.037Z,10.17
2023-04-24T18:48:31.223Z,10.16
2023-04-24T18:50:57.999Z,9.92
2023-04-24T18:53:24.707Z,9.85
2023-04-24T18:55:51.422Z,9.84
2023-04-24T18:58:18.236Z,9.94
2023-04-24T19:00:44.951Z,9.91
2023-04-24T19:03:11.775Z,9.62
2023-04-24T19:05:38.452Z,9.59
2023-04-24T19:08:05.113Z,9.78
2023-04-24T19:10:33.965Z,9.81
2023-04-24T19:13:01.789Z,9.62
2023-04-24T19:15:29.845Z,9.78
2023-04-24T19:17:56.792Z,9.55
2023-04-24T19:20:23.564Z,9.51
2023-04-24T19:22:50.852Z,9.84
2023-04-24T19:25:17.706Z,9.72
2023-04-24T19:27:44.305Z,9.61
2023-04-24T19:30:11.362Z,9.72
2023-04-24T19:32:37.978Z,9.32
2023-04-24T19:35:05.083Z,9.45
2023-04-24T19:37:32.310Z,9.68
2023-04-24T19:39:59.021Z,9.43
2023-04-24T19:42:36.009Z,9.04
2023-04-24T19:45:11.655Z,9.06
2023-04-24T19:47:38.773Z,9.42
2023-04-24T19:50:06.185Z,9.14
2023-04-24T19:52:32.793Z,9.27
2023-04-24T19:54:59.553Z,9.11
2023-04-24T19:57:26.132Z,9.28
2023-04-24T19:59:52.660Z,9.16
2023-04-24T20:02:19.293Z,8.88
2023-04-24T20:04:46.155Z,9.13
2023-04-24T20:07:12.882Z,9.31
2023-04-24T20:09:39.469Z,9.11
2023-04-24T20:12:06.086Z,9.20
2023-04-24T20:14:32.914Z,9.32
2023-04-24T20:16:59.510Z,9.15
2023-04-24T20:19:26.158Z,9.08
2023-04-24T20:21:54.128Z,8.89
2023-04-24T20:24:20.752Z,9.02
2023-04-24T20:26:47.553Z,8.99
2023-04-24T20:29:14.130Z,8.78
2023-04-24T20:31:41.606Z,8.86
2023-04-24T20:34:08.620Z,8.89
2023-04-24T20:36:35.302Z,8.70
2023-04-24T20:39:02.171Z,8.71
2023-04-24T20:41:30.275Z,8.81
2023-04-24T20:43:56.967Z,8.76
2023-04-24T20:46:23.611Z,8.66
2023-04-24T20:48:50.843Z,8.55
2023-04-24T20:51:19.529Z,8.57
2023-04-24T20:53:46.186Z,8.42
2023-04-24T20:56:12.783Z,8.45
2023-04-24T20:58:39.768Z,8.31
2023-04-24T21:01:06.631Z,8.31
2023-04-24T21:03:33.519Z,8.05
2023-04-24T21:06:00.457Z,8.30
2023-04-24T21:08:27.081Z,8.13
2023-04-24T21:10:53.707Z,8.32
2023-04-24T21:13:20.260Z,7.92
2023-04-24T21:15:46.883Z,8.00
2023-04-24T21:18:13.699Z,7.87
2023-04-24T21:20:40.397Z,7.79
2023-04-24T21:23:07.151Z,7.89
2023-04-24T21:25:34.934Z,7.71
2023-04-24T21:28:01.924Z,7.70
2023-04-24T21:30:29.307Z,7.73
2023-04-24T21:32:57.155Z,7.77
2023-04-24T21:35:23.795Z,7.76
2023-04-24T21:37:50.573Z,7.67
2023-04-24T21:40:18.835Z,7.71
2023-04-24T21:42:47.921Z,7.66
2023-04-24T21:45:14.804Z,7.62
2023-04-24T21:47:41.770Z,7.65
2023-04-24T21:50:08.985Z,7.62
2023-04-24T21:52:35.750Z,7.43
2023-04-24T21:55:04.906Z,7.53
2023-04-24T21:57:31.507Z,7.35
2023-04-24T21:59:58.390Z,7.53
2023-04-24T22:02:25.055Z,7.53
2023-04-24T22:04:52.865Z,7.54
2023-04-24T22:07:19.559Z,7.34
2023-04-24T22:09:46.175Z,7.37
2023-04-24T22:12:12.826Z,7.28
2023-04-24T22:14:39.376Z,7.39
2023-04-24T22:17:05.906Z,7.53
2023-04-24T22:19:32.515Z,7.49
2023-04-24T22:21:59.098Z,7.57
2023-04-24T22:24:25.629Z,7.52
2023-04-24T22:26:52.187Z,7.62
2023-04-24T22:29:18.767Z,7.65
2023-04-24T22:31:45.631Z,7.79
2023-04-24T22:34:12.324Z,7.63
2023-04-24T22:36:38.849Z,7.52
2023-04-24T22:39:05.611Z,7.56
2023-04-24T22:41:32.218Z,7.34
2023-04-24T22:43:59.029Z,7.31
2023-04-24T22:46:25.715Z,7.29
2023-04-24T22:48:52.273Z,7.34
2023-04-24T22:51:18.886Z,7.37
2023-04-24T22:53:46.042Z,7.36
2023-04-24T22:56:12.666Z,7.61
2023-04-24T22:58:39.274Z,7.49
2023-04-24T23:01:05.890Z,7.34
2023-04-24T23:03:33.265Z,7.35
2023-04-24T23:06:00.200Z,7.34
2023-04-24T23:08:26.871Z,7.47
2023-04-24T23:10:53.421Z,7.42
2023-04-24T23:13:20.078Z,7.61
2023-04-24T23:15:46.610Z,7.50
2023-04-24T23:18:13.165Z,7.80
2023-04-24T23:20:39.895Z,7.65
2023-04-24T23:23:06.399Z,7.46
2023-04-24T23:25:33.126Z,7.73
2023-04-24T23:27:59.768Z,7.53
2023-04-24T23:30:26.369Z,7.68
2023-04-24T23:32:52.939Z,7.46
2023-04-24T23:35:19.541Z,7.47
2023-04-24T23:37:46.228Z,7.59
2023-04-24T23:40:13.598Z,7.73
